Millers River @ Erving, Ma

Millers River at Erving
 Total Drainage Area: 372 sq. miles 
 Drainage Area Controlled by Corps Dams: 225 sq. miles (60%) 
 Warning Flow/Stage: ?? cfs / ?? feet 
 Flood Flow/Stage: 4,620 cfs / 6.4 feet 
Date Time
(Eastern)
Stage
(ft)
Flow
(cfs)
CSM
(cfs / sq. mi.)
Feb-02 11:00 pm 3.94 1,324 3.6
Feb-02 10:00 pm 3.94 1,324 3.6
Feb-02 09:00 pm 3.95 1,333 3.6
Feb-02 08:00 pm 3.94 1,324 3.6
Feb-02 07:00 pm 3.99 1,370 3.7
Feb-02 06:00 pm 4.01 1,389 3.7
Feb-02 05:00 pm 4.00 1,379 3.7
Feb-02 04:00 pm 4.03 1,407 3.8
Feb-02 03:00 pm 4.06 1,436 3.9
Feb-02 02:00 pm 4.05 1,426 3.8
Feb-02 01:00 pm 4.03 1,407 3.8
Feb-02 12:00 pm 4.03 1,407 3.8
Feb-02 11:00 am 4.04 1,417 3.8
Feb-02 10:00 am 4.04 1,417 3.8
Feb-02 09:00 am 4.07 1,445 3.9
Feb-02 08:00 am 4.06 1,436 3.9
Feb-02 07:00 am 4.04 1,417 3.8
Feb-02 06:00 am 4.05 1,426 3.8
Feb-02 05:00 am 4.08 1,455 3.9
Feb-02 04:00 am 4.10 1,474 4.0
Feb-02 03:00 am 4.10 1,474 4.0
Feb-02 02:00 am 4.08 1,455 3.9
Feb-02 01:00 am 4.10 1,474 4.0
Feb-02 12:00 am 4.14 1,513 4.1
Feb-01 11:00 pm 4.15 1,523 4.1
Report Generated February 03, 2023 04:53 am